createdAt,value
2017-11-10T00:01:00.477Z,80.40
2017-11-10T00:03:26.934Z,80.20
2017-11-10T00:05:53.083Z,80.40
2017-11-10T00:08:20.664Z,80.30
2017-11-10T00:10:47.537Z,80.00
2017-11-10T00:13:13.638Z,80.00
2017-11-10T00:15:39.792Z,80.60
2017-11-10T00:18:06.607Z,78.90
2017-11-10T00:20:34.435Z,78.80
2017-11-10T00:23:01.237Z,80.10
2017-11-10T00:25:27.314Z,80.10
2017-11-10T00:27:53.462Z,79.70
2017-11-10T00:30:19.511Z,79.80
2017-11-10T00:32:46.328Z,79.20
2017-11-10T00:35:12.464Z,79.20
2017-11-10T00:37:38.647Z,78.70
2017-11-10T00:40:04.710Z,78.60
2017-11-10T00:42:30.762Z,79.10
2017-11-10T00:44:56.979Z,79.10
2017-11-10T00:47:23.190Z,78.80
2017-11-10T00:49:49.433Z,79.30
2017-11-10T00:52:16.427Z,79.10
2017-11-10T00:54:42.477Z,79.00
2017-11-10T00:57:08.736Z,78.50
2017-11-10T00:59:34.950Z,78.60
2017-11-10T01:02:01.991Z,78.10
2017-11-10T01:04:28.255Z,78.00
2017-11-10T01:06:54.497Z,78.50
2017-11-10T01:09:20.764Z,78.50
2017-11-10T01:11:47.030Z,78.50
2017-11-10T01:14:13.355Z,78.60
2017-11-10T01:16:39.618Z,78.40
2017-11-10T01:19:05.833Z,79.20
2017-11-10T01:21:32.122Z,79.00
2017-11-10T01:23:59.837Z,79.00
2017-11-10T01:26:27.019Z,79.00
2017-11-10T01:28:56.634Z,79.00
2017-11-10T01:31:22.890Z,79.60
2017-11-10T01:33:50.847Z,80.00
2017-11-10T01:36:16.891Z,79.30
2017-11-10T01:38:43.173Z,79.60
2017-11-10T01:41:09.443Z,79.00
2017-11-10T01:43:38.843Z,79.20
2017-11-10T01:46:05.085Z,79.10
2017-11-10T01:48:38.098Z,79.50
2017-11-10T01:51:05.087Z,78.90
2017-11-10T01:53:31.378Z,78.90
2017-11-10T01:55:57.638Z,78.40
2017-11-10T01:58:24.690Z,78.70
2017-11-10T02:00:51.069Z,78.90
2017-11-10T02:03:17.946Z,78.80
2017-11-10T02:05:44.195Z,78.80
2017-11-10T02:08:10.488Z,78.40
2017-11-10T02:10:37.606Z,78.50
2017-11-10T02:13:04.611Z,78.60
2017-11-10T02:15:31.610Z,78.00
2017-11-10T02:17:57.852Z,78.00
2017-11-10T02:20:24.124Z,78.00
2017-11-10T02:22:50.387Z,77.60
2017-11-10T02:25:17.391Z,78.60
2017-11-10T02:27:45.792Z,79.20
2017-11-10T02:30:12.055Z,78.90
2017-11-10T02:32:38.358Z,79.20
2017-11-10T02:35:04.639Z,78.80
2017-11-10T02:37:30.909Z,79.30
2017-11-10T02:39:57.947Z,79.50
2017-11-10T02:42:24.239Z,79.30
2017-11-10T02:44:53.066Z,79.10
2017-11-10T02:47:19.380Z,79.80
2017-11-10T02:49:49.056Z,79.60
2017-11-10T02:52:15.322Z,79.30
2017-11-10T02:54:47.103Z,79.70
2017-11-10T02:57:13.924Z,79.70
2017-11-10T02:59:40.009Z,79.70
2017-11-10T03:02:06.900Z,80.90
2017-11-10T03:04:32.947Z,80.80
2017-11-10T03:06:59.018Z,81.00
2017-11-10T03:09:26.046Z,80.60
2017-11-10T03:11:52.130Z,79.80
2017-11-10T03:14:18.950Z,80.00
2017-11-10T03:16:45.034Z,79.90
2017-11-10T03:19:11.834Z,80.00
2017-11-10T03:21:37.883Z,80.00
2017-11-10T03:24:04.190Z,80.10
2017-11-10T03:26:30.462Z,79.70
2017-11-10T03:28:56.697Z,80.20
2017-11-10T03:31:22.959Z,79.40
2017-11-10T03:33:51.653Z,79.00
2017-11-10T03:36:18.702Z,79.50
2017-11-10T03:38:44.967Z,79.40
2017-11-10T03:41:11.243Z,79.70
2017-11-10T03:43:39.887Z,79.20
2017-11-10T03:46:06.167Z,78.80
2017-11-10T03:48:36.172Z,78.80
2017-11-10T03:51:03.257Z,78.80
2017-11-10T03:53:29.323Z,78.80
2017-11-10T03:55:55.610Z,78.90
2017-11-10T03:58:21.868Z,78.40
2017-11-10T04:00:50.488Z,78.80
2017-11-10T04:03:17.116Z,78.80
2017-11-10T04:05:43.178Z,78.30
2017-11-10T04:08:09.284Z,78.90
2017-11-10T04:10:37.948Z,79.20
2017-11-10T04:13:04.243Z,78.90
2017-11-10T04:15:30.524Z,79.40
2017-11-10T04:17:56.914Z,79.20
2017-11-10T04:20:23.179Z,79.60
2017-11-10T04:22:50.315Z,80.10
2017-11-10T04:25:17.292Z,79.50
2017-11-10T04:27:43.582Z,79.50
2017-11-10T04:30:09.856Z,80.00
2017-11-10T04:32:36.141Z,79.70
2017-11-10T04:35:02.397Z,79.70
2017-11-10T04:37:29.476Z,79.90
2017-11-10T04:42:40.270Z,80.30
2017-11-10T04:45:06.328Z,80.20
2017-11-10T04:47:32.378Z,80.20
2017-11-10T04:49:59.195Z,80.80
2017-11-10T04:52:25.259Z,80.20
2017-11-10T04:54:51.424Z,80.50
2017-11-10T04:57:18.554Z,80.40
2017-11-10T04:59:44.602Z,80.40
2017-11-10T05:02:11.386Z,80.00
2017-11-10T05:04:37.432Z,80.00
2017-11-10T05:07:03.493Z,80.10
2017-11-10T05:09:29.548Z,80.30
2017-11-10T05:11:55.618Z,80.80
2017-11-10T05:14:22.470Z,80.60
2017-11-10T05:16:48.669Z,80.20
2017-11-10T05:19:15.430Z,80.40
2017-11-10T05:21:41.509Z,80.40
2017-11-10T05:24:07.539Z,80.00
2017-11-10T05:26:33.575Z,80.40
2017-11-10T05:28:59.818Z,79.00
2017-11-10T05:31:26.092Z,81.00
2017-11-10T05:33:53.127Z,80.90
2017-11-10T05:36:19.366Z,80.80
2017-11-10T05:38:45.602Z,80.30
2017-11-10T05:41:14.154Z,80.80
2017-11-10T05:43:40.472Z,80.60
2017-11-10T05:46:07.269Z,81.00
2017-11-10T05:48:33.619Z,80.60
2017-11-10T05:50:59.881Z,81.10
2017-11-10T05:53:26.167Z,80.80
2017-11-10T05:55:52.463Z,80.60
2017-11-10T05:58:18.722Z,80.90
2017-11-10T06:00:45.734Z,81.00
2017-11-10T06:03:12.059Z,80.80
2017-11-10T06:05:39.043Z,80.00
2017-11-10T06:08:05.302Z,80.00
2017-11-10T06:10:31.620Z,80.40
2017-11-10T06:12:57.908Z,79.60
2017-11-10T06:15:24.174Z,79.70
2017-11-10T06:17:51.894Z,79.30
2017-11-10T06:20:18.191Z,79.70
2017-11-10T06:22:44.465Z,79.30
2017-11-10T06:25:10.714Z,79.70
2017-11-10T06:27:37.690Z,79.30
2017-11-10T06:30:03.991Z,79.30
2017-11-10T06:32:31.007Z,79.10
2017-11-10T06:34:57.274Z,79.10
2017-11-10T06:37:23.496Z,79.10
2017-11-10T06:39:50.298Z,79.00
2017-11-10T06:42:17.314Z,79.00
2017-11-10T06:44:43.583Z,79.00
2017-11-10T06:47:09.858Z,78.70
2017-11-10T06:49:36.152Z,78.70
2017-11-10T06:52:02.431Z,78.30
2017-11-10T06:54:29.453Z,78.00
2017-11-10T06:56:55.710Z,78.00
2017-11-10T06:59:22.758Z,77.70
2017-11-10T07:01:51.444Z,77.50
2017-11-10T07:04:18.321Z,77.70
2017-11-10T07:06:44.362Z,77.50
2017-11-10T07:09:10.456Z,77.40
2017-11-10T07:11:36.566Z,77.90
2017-11-10T07:14:02.623Z,77.90
2017-11-10T07:16:29.412Z,77.80
2017-11-10T07:18:55.484Z,77.80
2017-11-10T07:21:21.554Z,78.10
2017-11-10T07:23:48.561Z,79.10
2017-11-10T07:26:15.583Z,79.00
2017-11-10T07:28:42.583Z,79.40
2017-11-10T07:31:11.106Z,79.40
2017-11-10T07:33:37.921Z,79.10
2017-11-10T07:36:04.176Z,79.30
2017-11-10T07:38:30.436Z,79.50
2017-11-10T07:40:57.574Z,79.50
2017-11-10T07:43:24.139Z,79.50
2017-11-10T07:45:50.399Z,79.50
2017-11-10T07:48:16.675Z,80.70
2017-11-10T07:50:42.946Z,79.80
2017-11-10T07:53:09.184Z,80.00
2017-11-10T07:55:35.446Z,79.40
2017-11-10T07:58:01.749Z,80.00
2017-11-10T08:00:28.749Z,79.80
2017-11-10T08:02:56.583Z,79.80
2017-11-10T08:05:23.585Z,79.50
2017-11-10T08:07:50.095Z,79.40
2017-11-10T08:10:16.368Z,79.80
2017-11-10T08:12:42.610Z,79.70
2017-11-10T08:15:09.602Z,80.00
2017-11-10T08:17:35.995Z,80.00
2017-11-10T08:20:05.062Z,80.30
2017-11-10T08:22:31.341Z,80.50
2017-11-10T08:24:57.603Z,80.50
2017-11-10T08:27:23.941Z,80.20
2017-11-10T08:29:51.014Z,79.60
2017-11-10T08:32:17.275Z,79.80
2017-11-10T08:34:44.543Z,79.20
2017-11-10T08:37:10.891Z,79.50
2017-11-10T08:39:39.880Z,79.40
2017-11-10T08:42:06.156Z,79.80
2017-11-10T08:44:35.192Z,79.60
2017-11-10T08:47:01.459Z,78.90
2017-11-10T08:49:27.756Z,80.00
2017-11-10T08:51:53.999Z,79.10
2017-11-10T08:54:20.247Z,80.50
2017-11-10T08:56:46.463Z,80.10
2017-11-10T08:59:12.715Z,80.50
2017-11-10T09:01:38.967Z,80.20
2017-11-10T09:04:10.089Z,80.70
2017-11-10T09:06:36.342Z,81.30
2017-11-10T09:09:02.728Z,81.50
2017-11-10T09:11:28.986Z,81.20
2017-11-10T09:13:55.219Z,81.90
2017-11-10T09:16:22.199Z,80.80
2017-11-10T09:18:52.782Z,80.70
2017-11-10T09:21:19.687Z,80.60
2017-11-10T09:23:46.156Z,79.50
2017-11-10T09:26:12.411Z,80.60
2017-11-10T09:31:49.174Z,81.00
2017-11-10T09:34:36.795Z,81.00
2017-11-10T09:37:09.006Z,80.90
2017-11-10T09:39:42.093Z,80.60
2017-11-10T09:42:14.416Z,81.00
2017-11-10T09:44:40.470Z,80.10
2017-11-10T09:47:17.899Z,80.40
2017-11-10T09:53:00.287Z,79.80
2017-11-10T09:55:34.426Z,79.80
2017-11-10T09:58:04.376Z,79.10
2017-11-10T10:00:33.408Z,78.40
2017-11-10T10:03:05.559Z,77.70
2017-11-10T10:05:51.846Z,76.30
2017-11-10T10:11:21.780Z,76.40
2017-11-10T10:13:52.022Z,76.60
2017-11-10T10:16:28.921Z,76.00
2017-11-10T10:22:10.450Z,74.40
2017-11-10T10:24:37.519Z,74.50
2017-11-10T10:27:03.787Z,74.50
2017-11-10T10:29:30.051Z,73.30
2017-11-10T10:31:57.587Z,73.50
2017-11-10T10:34:24.650Z,74.30
2017-11-10T10:36:50.911Z,74.70
2017-11-10T10:39:23.548Z,74.80
2017-11-10T10:41:49.891Z,74.10
2017-11-10T10:44:17.296Z,73.10
2017-11-10T10:46:43.587Z,72.80
2017-11-10T10:49:09.859Z,74.00
2017-11-10T10:51:36.847Z,73.00
2017-11-10T10:54:07.171Z,73.00
2017-11-10T10:56:34.126Z,73.00
2017-11-10T10:59:00.415Z,72.30
2017-11-10T11:01:27.004Z,71.50
2017-11-10T11:03:53.310Z,71.70
2017-11-10T11:06:20.409Z,70.50
2017-11-10T11:08:51.349Z,70.40
2017-11-10T11:11:17.636Z,70.10
2017-11-10T11:13:46.439Z,70.70
2017-11-10T11:16:12.666Z,70.90
2017-11-10T11:18:39.820Z,70.90
2017-11-10T11:21:05.940Z,70.90
2017-11-10T11:23:35.587Z,70.60
2017-11-10T11:26:01.698Z,70.40
2017-11-10T11:28:29.889Z,71.10
2017-11-10T11:30:56.059Z,70.90
2017-11-10T11:33:22.136Z,72.40
2017-11-10T11:35:48.213Z,71.40
2017-11-10T11:38:19.607Z,72.90
2017-11-10T11:40:45.695Z,74.00
2017-11-10T11:43:11.942Z,74.70
2017-11-10T11:45:38.959Z,76.20
2017-11-10T11:48:06.312Z,76.20
2017-11-10T11:50:33.199Z,77.00
2017-11-10T11:53:00.393Z,76.90
2017-11-10T11:55:26.604Z,78.30
2017-11-10T11:57:52.792Z,78.30
2017-11-10T12:00:23.437Z,78.90
2017-11-10T12:02:49.549Z,79.20
2017-11-10T12:05:15.631Z,79.50
2017-11-10T12:07:44.649Z,80.60
2017-11-10T12:10:10.875Z,80.60
2017-11-10T12:12:36.975Z,80.80
2017-11-10T12:15:03.855Z,81.30
2017-11-10T12:17:29.935Z,81.00
2017-11-10T12:20:00.968Z,80.80
2017-11-10T12:22:27.239Z,81.10
2017-11-10T12:24:53.498Z,80.50
2017-11-10T12:27:19.776Z,81.40
2017-11-10T12:29:46.040Z,81.60
2017-11-10T12:32:12.560Z,81.40
2017-11-10T12:34:43.891Z,80.50
2017-11-10T12:37:10.157Z,81.40
2017-11-10T12:39:37.603Z,81.20
2017-11-10T12:42:04.332Z,81.10
2017-11-10T12:44:30.655Z,81.50
2017-11-10T12:46:57.643Z,81.60
2017-11-10T12:49:23.727Z,81.60
2017-11-10T12:51:52.573Z,81.20
2017-11-10T12:54:20.867Z,81.20
2017-11-10T12:56:46.898Z,80.60
2017-11-10T12:59:12.986Z,81.10
2017-11-10T13:01:42.220Z,80.80
2017-11-10T13:04:09.379Z,80.30
2017-11-10T13:06:36.196Z,79.40
2017-11-10T13:09:05.391Z,79.30
2017-11-10T13:11:31.469Z,79.10
2017-11-10T13:13:57.531Z,78.90
2017-11-10T13:16:23.667Z,77.60
2017-11-10T13:18:49.740Z,78.80
2017-11-10T13:21:15.789Z,77.80
2017-11-10T13:23:43.548Z,76.70
2017-11-10T13:26:10.923Z,76.60
2017-11-10T13:28:37.644Z,76.60
2017-11-10T13:31:03.959Z,76.00
2017-11-10T13:33:30.179Z,74.30
2017-11-10T13:35:58.148Z,74.60
2017-11-10T13:38:24.472Z,74.70
2017-11-10T13:40:51.449Z,75.40
2017-11-10T13:43:20.175Z,74.60
2017-11-10T13:45:47.163Z,73.70
2017-11-10T13:48:13.414Z,73.60
2017-11-10T13:50:39.740Z,74.10
2017-11-10T13:53:06.722Z,72.50
2017-11-10T13:55:32.992Z,72.50
2017-11-10T13:57:59.299Z,73.80
2017-11-10T14:00:25.579Z,74.00
2017-11-10T14:02:51.863Z,73.90
2017-11-10T14:05:20.888Z,72.50
2017-11-10T14:07:47.171Z,72.50
2017-11-10T14:10:14.163Z,72.10
2017-11-10T14:12:40.495Z,72.40
2017-11-10T14:15:07.513Z,73.60
2017-11-10T14:17:33.787Z,73.80
2017-11-10T14:20:00.041Z,74.30
2017-11-10T14:22:27.051Z,74.30
2017-11-10T14:24:53.188Z,74.30
2017-11-10T14:27:20.227Z,72.90
2017-11-10T14:29:47.558Z,72.60
2017-11-10T14:32:13.788Z,72.70
2017-11-10T14:34:39.885Z,73.90
2017-11-10T14:37:06.833Z,76.70
2017-11-10T14:39:32.946Z,75.10
2017-11-10T14:41:59.036Z,74.50
2017-11-10T14:44:25.132Z,74.10
2017-11-10T14:46:51.319Z,75.40
2017-11-10T14:49:17.379Z,74.20
2017-11-10T14:51:44.188Z,74.40
2017-11-10T14:54:10.250Z,74.40
2017-11-10T14:56:36.410Z,74.40
2017-11-10T14:59:03.368Z,71.90
2017-11-10T15:01:29.799Z,71.90
2017-11-10T15:03:56.873Z,72.10
2017-11-10T15:06:23.123Z,72.00
2017-11-10T15:08:49.383Z,72.10
2017-11-10T15:11:15.648Z,70.80
2017-11-10T15:13:41.914Z,71.00
2017-11-10T15:18:41.091Z,73.00
2017-11-10T15:21:07.379Z,74.40
2017-11-10T15:23:34.506Z,75.90
2017-11-10T15:26:00.758Z,75.90
2017-11-10T15:28:27.051Z,74.30
2017-11-10T15:30:58.851Z,75.10
2017-11-10T15:33:25.931Z,74.10
2017-11-10T15:35:52.283Z,74.10
2017-11-10T15:38:18.618Z,75.10
2017-11-10T15:40:44.876Z,73.00
2017-11-10T15:43:11.139Z,74.80
2017-11-10T15:45:37.439Z,74.00
2017-11-10T15:48:07.387Z,74.50
2017-11-10T15:50:33.671Z,73.90
2017-11-10T15:52:59.952Z,73.90
2017-11-10T15:55:26.247Z,74.30
2017-11-10T15:57:52.622Z,73.90
2017-11-10T16:00:18.904Z,74.80
2017-11-10T16:05:16.519Z,73.80
2017-11-10T16:07:43.544Z,69.00
2017-11-10T16:10:09.991Z,69.30
2017-11-10T16:12:36.271Z,70.20
2017-11-10T16:15:02.559Z,72.00
2017-11-10T16:17:28.840Z,71.40
2017-11-10T16:20:00.256Z,73.60
2017-11-10T16:22:27.371Z,72.20
2017-11-10T16:24:54.379Z,72.20
2017-11-10T16:27:20.674Z,73.70
2017-11-10T16:29:46.997Z,73.70
2017-11-10T16:32:14.227Z,72.70
2017-11-10T16:34:44.805Z,72.60
2017-11-10T16:37:11.135Z,71.70
2017-11-10T16:39:37.392Z,73.60
2017-11-10T16:42:03.700Z,72.30
2017-11-10T16:44:29.997Z,73.30
2017-11-10T16:46:56.298Z,73.20
2017-11-10T16:49:22.574Z,73.00
2017-11-10T16:51:52.741Z,72.90
2017-11-10T16:54:19.643Z,73.50
2017-11-10T16:56:45.947Z,73.30
2017-11-10T16:59:12.974Z,72.10
2017-11-10T17:01:40.358Z,72.10
2017-11-10T17:04:07.400Z,71.30
2017-11-10T17:06:38.554Z,71.30
2017-11-10T17:09:04.893Z,71.60
2017-11-10T17:11:31.170Z,72.00
2017-11-10T17:13:57.426Z,70.10
2017-11-10T17:16:23.689Z,70.70
2017-11-10T17:18:50.712Z,71.60
2017-11-10T17:21:17.026Z,71.50
2017-11-10T17:23:48.275Z,70.40
2017-11-10T17:26:14.594Z,71.10
2017-11-10T17:28:41.157Z,70.10
2017-11-10T17:31:07.450Z,70.90
2017-11-10T17:33:34.522Z,71.10
2017-11-10T17:36:00.803Z,71.00
2017-11-10T17:38:27.113Z,70.50
2017-11-10T17:40:53.386Z,69.80
2017-11-10T17:43:24.311Z,69.60
2017-11-10T17:45:50.587Z,70.10
2017-11-10T17:48:16.908Z,70.40
2017-11-10T17:50:43.941Z,70.90
2017-11-10T17:53:10.237Z,70.90
2017-11-10T17:55:36.531Z,69.60
2017-11-10T17:58:07.952Z,69.70
2017-11-10T18:00:34.983Z,68.80
2017-11-10T18:03:01.245Z,68.80
2017-11-10T18:05:28.275Z,68.80
2017-11-10T18:07:54.554Z,68.80
2017-11-10T18:10:20.831Z,68.80
2017-11-10T18:12:47.835Z,68.60
2017-11-10T18:15:19.082Z,68.50
2017-11-10T18:17:45.339Z,68.20
2017-11-10T18:20:11.635Z,67.90
2017-11-10T18:22:37.991Z,68.60
2017-11-10T18:25:04.285Z,68.60
2017-11-10T18:27:30.553Z,68.10
2017-11-10T18:29:56.817Z,67.60
2017-11-10T18:32:23.102Z,67.00
2017-11-10T18:34:49.402Z,67.70
2017-11-10T18:37:15.742Z,66.70
2017-11-10T18:39:42.045Z,66.70
2017-11-10T18:42:11.973Z,66.50
2017-11-10T18:44:38.357Z,65.90
2017-11-10T18:47:04.631Z,66.30
2017-11-10T18:49:32.121Z,66.10
2017-11-10T18:51:59.126Z,65.90
2017-11-10T18:54:25.438Z,65.90
2017-11-10T18:56:52.475Z,64.90
2017-11-10T18:59:21.187Z,64.90
2017-11-10T19:01:47.427Z,64.50
2017-11-10T19:04:13.699Z,65.50
2017-11-10T19:06:39.979Z,65.20
2017-11-10T19:09:06.239Z,65.30
2017-11-10T19:11:32.492Z,64.40
2017-11-10T19:13:58.755Z,64.80
2017-11-10T19:16:27.067Z,63.80
2017-11-10T19:18:53.428Z,64.50
2017-11-10T19:21:20.444Z,63.10
2017-11-10T19:23:46.697Z,63.10
2017-11-10T19:26:13.027Z,62.90
2017-11-10T19:28:39.302Z,63.90
2017-11-10T19:31:05.551Z,63.40
2017-11-10T19:33:36.715Z,63.30
2017-11-10T19:36:03.548Z,63.00
2017-11-10T19:38:29.865Z,63.00
2017-11-10T19:40:56.864Z,63.00
2017-11-10T19:43:23.131Z,63.00
2017-11-10T19:45:49.376Z,62.80
2017-11-10T19:48:15.655Z,63.50
2017-11-10T19:50:46.202Z,62.90
2017-11-10T19:53:12.467Z,62.40
2017-11-10T19:55:39.471Z,63.40
2017-11-10T19:58:05.872Z,62.90
2017-11-10T20:00:32.182Z,63.00
2017-11-10T20:02:58.470Z,62.90
2017-11-10T20:05:25.510Z,63.10
2017-11-10T20:07:55.671Z,63.00
2017-11-10T20:10:21.969Z,63.10
2017-11-10T20:12:48.335Z,63.10
2017-11-10T20:15:14.586Z,61.80
2017-11-10T20:17:40.845Z,62.00
2017-11-10T20:20:07.135Z,61.20
2017-11-10T20:22:33.439Z,61.90
2017-11-10T20:25:04.741Z,61.90
2017-11-10T20:27:31.023Z,62.70
2017-11-10T20:29:58.028Z,63.00
2017-11-10T20:32:24.320Z,63.10
2017-11-10T20:34:50.603Z,63.20
2017-11-10T20:37:16.899Z,63.10
2017-11-10T20:39:43.946Z,62.50
2017-11-10T20:42:10.243Z,62.50
2017-11-10T20:44:37.247Z,61.60
2017-11-10T20:47:03.510Z,61.60
2017-11-10T20:49:29.775Z,62.90
2017-11-10T20:51:56.035Z,61.80
2017-11-10T20:54:22.306Z,61.40
2017-11-10T20:56:48.569Z,62.10
2017-11-10T20:59:14.884Z,62.50
2017-11-10T21:01:41.161Z,61.60
2017-11-10T21:04:07.560Z,62.30
2017-11-10T21:06:33.799Z,61.40
2017-11-10T21:09:00.149Z,62.80
2017-11-10T21:11:26.393Z,62.70
2017-11-10T21:13:52.646Z,62.80
2017-11-10T21:16:18.875Z,62.40
2017-11-10T21:18:45.169Z,62.70
2017-11-10T21:21:12.259Z,62.80
2017-11-10T21:23:38.575Z,62.80
2017-11-10T21:26:05.682Z,62.90
2017-11-10T21:28:31.970Z,62.90
2017-11-10T21:30:58.214Z,62.80
2017-11-10T21:33:24.479Z,62.30
2017-11-10T21:35:50.743Z,62.70
2017-11-10T21:38:17.848Z,62.50
2017-11-10T21:40:44.143Z,62.70
2017-11-10T21:43:11.182Z,62.00
2017-11-10T21:45:37.473Z,61.70
2017-11-10T21:48:05.622Z,61.80
2017-11-10T21:50:31.893Z,62.00
2017-11-10T21:52:58.195Z,62.30
2017-11-10T21:55:24.441Z,62.50
2017-11-10T21:57:51.387Z,62.40
2017-11-10T22:00:17.646Z,62.50
2017-11-10T22:02:43.899Z,62.60
2017-11-10T22:05:10.139Z,62.60
2017-11-10T22:07:36.426Z,62.60
2017-11-10T22:10:02.739Z,63.20
2017-11-10T22:12:30.498Z,62.70
2017-11-10T22:14:56.763Z,62.70
2017-11-10T22:17:23.775Z,62.50
2017-11-10T22:19:50.014Z,62.40
2017-11-10T22:22:16.250Z,63.70
2017-11-10T22:24:42.503Z,63.80
2017-11-10T22:27:10.374Z,63.80
2017-11-10T22:29:36.614Z,63.80
2017-11-10T22:32:02.877Z,64.00
2017-11-10T22:34:29.124Z,63.60
2017-11-10T22:36:56.491Z,62.60
2017-11-10T22:39:23.517Z,62.40
2017-11-10T22:41:49.768Z,62.40
2017-11-10T22:44:16.015Z,63.00
2017-11-10T22:46:42.282Z,63.40
2017-11-10T22:49:08.520Z,63.10
2017-11-10T22:51:35.178Z,62.50
2017-11-10T22:54:02.560Z,62.50
2017-11-10T22:56:28.981Z,62.60
2017-11-10T22:58:56.015Z,62.70
2017-11-10T23:01:22.268Z,62.70
2017-11-10T23:03:48.510Z,62.70
2017-11-10T23:06:14.765Z,62.40
2017-11-10T23:08:40.999Z,62.60
2017-11-10T23:11:07.259Z,63.10
2017-11-10T23:13:33.647Z,63.70
2017-11-10T23:15:59.963Z,62.60
2017-11-10T23:18:26.218Z,62.60
2017-11-10T23:20:53.888Z,63.80
2017-11-10T23:23:20.228Z,63.70
2017-11-10T23:25:46.478Z,63.50
2017-11-10T23:28:12.744Z,63.30
2017-11-10T23:30:39.817Z,63.60
2017-11-10T23:33:06.091Z,63.60
2017-11-10T23:35:32.306Z,64.00
2017-11-10T23:37:58.744Z,64.30
2017-11-10T23:40:25.027Z,64.10
2017-11-10T23:42:51.246Z,64.40
2017-11-10T23:45:17.467Z,64.60
2017-11-10T23:47:43.721Z,64.40
2017-11-10T23:50:09.961Z,64.50
2017-11-10T23:52:36.276Z,64.00
2017-11-10T23:55:02.548Z,65.20
2017-11-10T23:57:28.790Z,65.00
2017-11-10T23:59:55.032Z,65.20
